createdAt,value
2019-04-25T00:12:05.771Z,69.20
2019-04-25T01:06:14.010Z,72.10
2019-04-25T02:05:47.863Z,74.20
2019-04-25T02:10:59.463Z,73.50
2019-04-25T02:16:05.311Z,72.60
2019-04-25T02:21:09.867Z,72.00
2019-04-25T02:26:16.796Z,72.30
2019-04-25T02:31:20.388Z,71.80
2019-04-25T02:36:24.786Z,70.80
2019-04-25T02:41:29.937Z,70.70
2019-04-25T02:46:48.451Z,69.40
2019-04-25T02:52:17.759Z,69.60
2019-04-25T02:57:20.569Z,67.90
2019-04-25T03:02:25.003Z,69.30
2019-04-25T03:29:13.983Z,70.20
2019-04-25T03:34:20.956Z,68.70
2019-04-25T03:39:27.037Z,68.50
2019-04-25T03:44:38.121Z,69.40
2019-04-25T03:49:43.454Z,69.80
2019-04-25T03:54:48.333Z,70.50
2019-04-25T03:59:53.614Z,70.00
2019-04-25T04:04:58.474Z,70.20
2019-04-25T04:10:05.771Z,71.00
2019-04-25T04:15:10.426Z,71.80
2019-04-25T04:20:40.194Z,72.10
2019-04-25T04:25:45.173Z,72.40
2019-04-25T04:30:49.562Z,72.10
2019-04-25T04:35:54.498Z,72.00
2019-04-25T04:40:59.415Z,72.90
2019-04-25T04:46:04.107Z,72.60
2019-04-25T04:51:10.564Z,72.70
2019-04-25T04:56:18.013Z,72.10
2019-04-25T05:01:29.069Z,71.80
2019-04-25T05:11:50.978Z,72.20
2019-04-25T05:16:56.194Z,71.00
2019-04-25T05:22:00.505Z,70.30
2019-04-25T05:27:05.043Z,70.90
2019-04-25T05:32:09.930Z,70.90
2019-04-25T05:37:15.517Z,70.90
2019-04-25T05:42:45.774Z,70.10
2019-04-25T05:47:50.258Z,71.10
2019-04-25T05:52:54.837Z,69.60
2019-04-25T05:57:59.597Z,69.00
2019-04-25T06:03:04.090Z,68.70
2019-04-25T06:08:08.993Z,65.00
2019-04-25T06:13:38.689Z,63.90
2019-04-25T06:18:55.753Z,62.90
2019-04-25T06:24:25.777Z,63.80
2019-04-25T06:29:29.860Z,62.80
2019-04-25T06:34:36.314Z,63.40
2019-04-25T06:39:40.403Z,64.00
2019-04-25T06:44:54.100Z,64.00
2019-04-25T06:49:58.703Z,61.50
2019-04-25T06:55:03.478Z,60.80
2019-04-25T07:00:09.691Z,60.50
2019-04-25T07:05:26.555Z,60.30
2019-04-25T07:10:24.148Z,57.70
2019-04-25T07:15:29.536Z,57.80
2019-04-25T07:20:34.632Z,56.60
2019-04-25T07:25:43.993Z,57.20
2019-04-25T07:31:03.638Z,57.00
2019-04-25T07:36:08.544Z,54.10
2019-04-25T07:41:14.712Z,52.90
2019-04-25T07:46:19.270Z,54.10
2019-04-25T07:51:23.759Z,54.80
2019-04-25T07:56:29.403Z,54.40
2019-04-25T08:01:36.656Z,53.00
2019-04-25T08:06:40.276Z,51.00
2019-04-25T08:11:44.940Z,51.00
2019-04-25T08:16:53.759Z,50.50
2019-04-25T08:22:00.290Z,50.60
2019-04-25T08:27:06.020Z,52.10
2019-04-25T08:32:11.746Z,51.30
2019-04-25T08:37:27.371Z,50.70
2019-04-25T08:42:35.404Z,49.00
2019-04-25T08:47:41.848Z,48.10
2019-04-25T08:52:47.611Z,48.60
2019-04-25T08:57:58.691Z,48.20
2019-04-25T09:03:07.656Z,46.60
2019-04-25T09:09:00.531Z,47.00
2019-04-25T09:14:05.338Z,46.90
2019-04-25T09:19:09.830Z,45.30
2019-04-25T09:24:14.596Z,44.90
2019-04-25T09:29:19.877Z,46.00
2019-04-25T09:34:25.244Z,46.00
2019-04-25T09:39:44.356Z,46.40
2019-04-25T09:45:11.374Z,46.90
2019-04-25T09:50:27.318Z,48.20
2019-04-25T09:55:37.864Z,48.60
2019-04-25T10:00:45.928Z,49.50
2019-04-25T10:05:52.685Z,49.20
2019-04-25T10:10:57.616Z,48.90
2019-04-25T10:16:09.715Z,49.20
2019-04-25T10:21:15.634Z,49.30
2019-04-25T10:26:23.280Z,49.80
2019-04-25T10:31:29.127Z,49.40
2019-04-25T10:36:35.019Z,48.70
2019-04-25T10:41:43.180Z,48.60
2019-04-25T10:46:49.924Z,49.30
2019-04-25T11:27:33.977Z,45.00
2019-04-25T11:32:39.083Z,43.40
2019-04-25T11:37:44.068Z,42.00
2019-04-25T11:42:50.384Z,42.90
2019-04-25T11:47:55.456Z,40.40
2019-04-25T11:53:00.972Z,40.40
2019-04-25T11:58:06.037Z,40.30
2019-04-25T12:03:11.675Z,41.80
2019-04-25T12:08:16.791Z,39.50
2019-04-25T12:13:21.615Z,39.60
2019-04-25T12:18:26.938Z,40.80
2019-04-25T12:23:33.944Z,39.40
2019-04-25T12:28:39.402Z,38.10
2019-04-25T12:33:46.362Z,38.40
2019-04-25T12:38:51.114Z,37.90
2019-04-25T12:44:17.727Z,38.00
2019-04-25T12:49:24.142Z,39.00
2019-04-25T12:54:28.497Z,38.60
2019-04-25T12:59:34.654Z,38.30
2019-04-25T13:04:40.482Z,35.80
2019-04-25T13:09:45.489Z,34.80
2019-04-25T13:14:50.523Z,34.80
2019-04-25T13:19:56.776Z,33.90
2019-04-25T13:25:05.673Z,33.90
2019-04-25T13:30:28.671Z,33.00
2019-04-25T13:35:41.167Z,31.60
2019-04-25T13:40:45.953Z,33.10
2019-04-25T13:45:51.187Z,31.10
2019-04-25T13:50:56.094Z,31.90
2019-04-25T13:56:00.933Z,33.30
2019-04-25T14:01:12.868Z,31.00
2019-04-25T14:06:14.074Z,30.80
2019-04-25T14:11:20.582Z,30.90
2019-04-25T14:16:44.123Z,31.00
2019-04-25T14:21:49.665Z,32.40
2019-04-25T14:26:54.703Z,34.90
2019-04-25T14:32:00.017Z,30.90
2019-04-25T14:37:04.966Z,29.90
2019-04-25T14:42:09.933Z,31.60
2019-04-25T14:47:14.352Z,31.30
2019-04-25T14:52:19.805Z,32.30
2019-04-25T14:57:27.612Z,33.50
2019-04-25T15:02:34.238Z,33.40
2019-04-25T15:07:38.964Z,33.70
2019-04-25T15:12:43.326Z,34.50
2019-04-25T15:17:49.335Z,33.40
2019-04-25T15:22:53.943Z,32.90
2019-04-25T15:27:59.069Z,31.60
2019-04-25T15:33:05.450Z,32.90
2019-04-25T15:38:14.675Z,31.80
2019-04-25T15:43:28.674Z,33.50
2019-04-25T15:48:34.477Z,33.50
2019-04-25T15:53:40.263Z,33.30
2019-04-25T15:58:45.366Z,33.70
2019-04-25T16:03:52.383Z,33.00
2019-04-25T16:08:56.407Z,33.20
2019-04-25T16:14:01.638Z,34.00
2019-04-25T16:19:07.276Z,33.20
2019-04-25T16:24:12.716Z,35.40
2019-04-25T16:29:19.026Z,37.40
2019-04-25T16:34:24.156Z,37.70
2019-04-25T16:39:31.217Z,36.30
2019-04-25T16:44:37.571Z,37.30
2019-04-25T16:49:43.138Z,38.30
2019-04-25T16:55:09.306Z,39.30
2019-04-25T17:00:32.156Z,39.20
2019-04-25T17:05:39.318Z,39.40
2019-04-25T17:10:44.911Z,39.20
2019-04-25T17:15:59.563Z,38.90
2019-04-25T17:21:06.941Z,38.60
2019-04-25T17:26:12.589Z,38.80
2019-04-25T17:31:31.402Z,38.90
2019-04-25T17:36:53.401Z,39.20
2019-04-25T17:41:58.511Z,40.10
